createdAt,value
2023-02-17T00:08:23.210Z,2.1
2023-02-17T00:18:23.237Z,2.4
2023-02-17T00:28:23.600Z,2.3
2023-02-17T00:38:22.912Z,1.7
2023-02-17T00:48:23.070Z,2
2023-02-17T00:58:22.747Z,2.6
2023-02-17T01:08:22.442Z,2.1
2023-02-17T01:18:21.873Z,1.4
2023-02-17T01:28:20.966Z,1.7
2023-02-17T01:38:21.606Z,1.9
2023-02-17T01:48:22.490Z,-10.3
2023-02-17T01:58:22.650Z,1.4
2023-02-17T02:08:22.448Z,1.5
2023-02-17T02:18:23.164Z,1.6
2023-02-17T02:28:22.741Z,1.1
2023-02-17T02:38:23.052Z,1.3
2023-02-17T02:48:23.174Z,1.8
2023-02-17T02:58:22.888Z,1.5
2023-02-17T03:08:06.025Z,1.8
2023-02-17T03:18:05.209Z,1.1
2023-02-17T03:28:05.055Z,1.3
2023-02-17T03:38:04.193Z,1.4
2023-02-17T03:48:05.092Z,1.3
2023-02-17T03:58:05.364Z,1.1
2023-02-17T04:08:06.123Z,0.8
2023-02-17T04:18:07.564Z,1
2023-02-17T04:28:09.134Z,1.4
2023-02-17T04:38:08.226Z,1.5
2023-02-17T04:48:09.328Z,-10.4
2023-02-17T04:58:10.800Z,1.1
2023-02-17T05:08:10.387Z,1
2023-02-17T05:18:09.908Z,1.1
2023-02-17T05:28:09.074Z,1.4
2023-02-17T05:38:09.771Z,1.1
2023-02-17T05:48:09.011Z,1.4
2023-02-17T05:58:09.568Z,1.8
2023-02-17T06:08:10.665Z,0
2023-02-17T06:18:13.336Z,2.8
2023-02-17T06:28:13.991Z,4.3
2023-02-17T06:38:20.829Z,2
2023-02-17T06:48:30.511Z,2.3
2023-02-17T06:58:38.306Z,3.4
2023-02-17T07:08:47.773Z,4.2
2023-02-17T07:18:58.543Z,5.4
2023-02-17T07:31:52.328Z,4.1
2023-02-17T07:47:37.536Z,11.3
2023-02-17T07:57:51.451Z,14
2023-02-17T08:08:05.810Z,-2.5
2023-02-17T08:18:18.144Z,21.9
2023-02-17T08:28:29.156Z,28.9
2023-02-17T08:38:40.026Z,33.1
2023-02-17T08:48:52.743Z,34.1
2023-02-17T08:59:05.420Z,35.6
2023-02-17T09:08:17.265Z,38.1
2023-02-17T15:08:10.948Z,12.6
2023-02-17T15:18:14.627Z,4.4
2023-02-17T15:28:17.628Z,12.5
2023-02-17T15:38:18.762Z,2
2023-02-17T15:48:20.074Z,11.7
2023-02-17T15:58:22.451Z,2.3
2023-02-17T16:08:26.299Z,2.9
2023-02-17T16:18:30.732Z,10.8
2023-02-17T16:28:33.900Z,1.8
2023-02-17T16:38:36.117Z,1.8
2023-02-17T16:48:39.580Z,1.1
2023-02-17T16:58:42.464Z,-0.4
2023-02-17T17:08:44.136Z,0.7
2023-02-17T17:18:46.241Z,0.8
2023-02-17T17:28:48.306Z,8.9
2023-02-17T17:38:49.514Z,8.9
2023-02-17T17:48:48.898Z,4.4
2023-02-17T17:58:48.609Z,8.9
2023-02-17T18:08:48.728Z,8.8
2023-02-17T18:18:47.966Z,8.3
2023-02-17T18:28:48.199Z,8.4
2023-02-17T18:38:48.274Z,0.1
2023-02-17T18:48:52.363Z,-1.8
2023-02-17T18:58:56.470Z,-1.9
2023-02-17T19:09:00.672Z,-2.3
2023-02-17T19:19:04.830Z,-2.1
2023-02-17T19:29:08.781Z,-2.3
2023-02-17T19:39:12.832Z,-1.8
2023-02-17T19:49:16.973Z,-2.6
2023-02-17T19:59:21.012Z,-2.5
2023-02-17T20:09:25.155Z,-1.7
2023-02-17T20:19:29.206Z,-2.8
2023-02-17T20:29:29.037Z,7.1
2023-02-17T20:39:28.692Z,6.8
2023-02-17T20:49:29.141Z,6.4
2023-02-17T20:59:28.630Z,6.9
2023-02-17T21:08:07.031Z,6.6
2023-02-17T21:18:07.973Z,6.7
2023-02-17T21:28:06.975Z,6.6
2023-02-17T21:38:08.165Z,5.8
2023-02-17T21:48:08.384Z,6.3
2023-02-17T21:58:08.412Z,5.5
2023-02-17T22:08:09.829Z,5.8
2023-02-17T22:18:12.444Z,5
2023-02-17T22:28:14.594Z,-3.9
2023-02-17T22:38:15.009Z,5.2
2023-02-17T22:48:17.148Z,5
2023-02-17T22:58:16.962Z,4.8
2023-02-17T23:08:17.201Z,4.5
2023-02-17T23:18:17.359Z,4.2
2023-02-17T23:28:17.239Z,4.7
2023-02-17T23:38:19.513Z,5.1
2023-02-17T23:48:20.393Z,-5.1
2023-02-17T23:58:22.624Z,-5.3
